Historyczne dane pomiarowe

Dodano dane terminowe – wersja testowa.

Dane z okresu 1951-2019

Wersja bazy: 1.34 [2019-03-16, lista zmian], aktualizacja planowana na 2019-04-15

Dane meteo z obszaru Polski uzyskane na podstawie danych udostępnionych przez Instytut Meteorologii i Gospodarki Wodnej – Państwowy Instytut Badawczy.

 

Wybierz Datę:    

       

TemperaturaWilgotnośćWiatrCiśnienieOpadyŚniegCzas trwania zjawisk
 Stacja t tx tn tng RH VA  wxwx mslp ppp RRR   cm mm wxwxwxwxwxwxwx
1994-08-14 15.8 19.9 12.1 8.9-------- 0.0--- 0.0 7.6-------
1994-08-13 17.6 22.0 14.9 11.9-------- 0.4--- 0.0 4.5-------
1994-08-12 18.0 21.4 16.0 13.3-------- 0.0--- 0.0 3.6-------
1994-08-11 20.8 26.2 14.8 13.6-------- 31.7--- 0.0 2.8-------
1994-08-10 20.3 25.7 16.2 14.2-------- 0.0--- 0.0 8.7-------
1994-08-09 22.0 30.2 17.7 15.8-------- 0.8--- 0.0 4.5-------
1994-08-08 23.2 30.8 18.7 17.0-------- 3.3--- 0.0 4.4-------
1994-08-07 23.6 29.3 16.9 13.5-------- 0.0--- 0.0 8.9-------
1994-08-06 23.2 30.5 15.3 13.3-------- 0.0--- 0.0 12.8-------
1994-08-05 23.1 29.4 15.1 13.4-------- 0.0--- 0.0 12.9-------
1994-08-04 22.2 27.2 16.5 14.3-------- 0.0--- 0.0 7.6-------
1994-08-03 23.6 31.4 18.7 15.8-------- 11.0--- 0.0 4.5-------
1994-08-02 24.9 32.0 14.7 12.3-------- 0.0--- 0.0 12.6-------
1994-08-01 25.9 32.4 17.1 14.9-------- 0.0--- 0.0 9.7-------
1994-07-31 25.8 32.8 17.7 14.8-------- 0.0--- 0.0 9.7-------
1994-07-30 24.9 31.4 17.1 14.0-------- 0.0--- 0.0 12.8-------
1994-07-29 25.0 31.9 15.3 11.7-------- 0.0--- 0.0 13.0-------
1994-07-28 24.2 31.2 15.2 12.8-------- 0.0--- 0.0 13.1-------
1994-07-27 24.6 31.8 16.2 13.3-------- 0.0--- 0.0 12.1-------
1994-07-26 24.0 31.3 12.6 11.1-------- 0.0--- 0.0 13.3-------
1994-07-25 23.0 29.8 12.8 10.9-------- 0.0--- 0.0 12.6-------
1994-07-24 22.3 28.6 14.6 12.0-------- 0.0--- 0.0 13.8-------
1994-07-23 21.4 28.2 13.9 11.4-------- 0.0--- 0.0 12.7-------
1994-07-22 20.5 26.7 12.6 10.4-------- 0.0--- 0.0 14.1-------
1994-07-21 19.9 25.1 10.9 8.4-------- 0.0--- 0.0 14.0-------
1994-07-20 18.9 23.6 14.3 10.4-------- 0.0--- 0.0 13.2-------
1994-07-19 20.1 25.0 16.2 14.3-------- 0.0--- 0.0 9.6-------
1994-07-18 19.2 24.5 16.6 15.3-------- 11.2--- 0.0 3.9-------
1994-07-17 23.1 30.3 17.9 14.7-------- 7.8--- 0.0 11.8-------
1994-07-16 22.7 30.0 12.1 9.4-------- 0.0--- 0.0 13.4-------
1994-07-15 21.7 27.1 15.4 11.3-------- 0.0--- 0.0 12.9-------
1994-07-14 21.4 27.8 15.6 12.4-------- 0.0--- 0.0 7.6-------
1994-07-13 21.8 27.8 13.5 10.4-------- 0.0--- 0.0 12.0-------
1994-07-12 20.7 26.7 14.8 13.1-------- 0.0--- 0.0 10.5-------
1994-07-11 16.7 19.3 13.4 11.4-------- 0.0--- 0.0 0.0-------
1994-07-10 15.4 20.4 11.1 8.3-------- 0.0--- 0.0 1.6-------
1994-07-09 14.5 21.8 9.8 7.7-------- 0.4--- 0.0 1.2-------
1994-07-08 18.7 23.4 14.8 13.7-------- 0.3--- 0.0 6.2-------
1994-07-07 20.0 26.5 10.3 8.4-------- 2.4--- 0.0 9.8-------
1994-07-06 20.0 24.5 14.3 12.0-------- 0.0--- 0.0 11.9-------
1994-07-05 20.5 26.7 13.4 10.9-------- 0.0--- 0.0 13.3-------
1994-07-04 20.7 26.9 11.7 9.1-------- 0.0--- 0.0 14.8-------
1994-07-03 19.6 24.8 10.3 6.4-------- 0.0--- 0.0 14.5-------
1994-07-02 18.8 23.8 11.4 8.5-------- 0.0--- 0.0 14.7-------
1994-07-01 19.8 23.3 16.5 15.8-------- 0.0--- 0.0 11.3-------
1994-06-30 23.5 30.8 16.5 14.8-------- 3.0--- 0.0 9.6-------
1994-06-29 24.0 29.6 16.3 12.7-------- 0.0--- 0.0 14.8-------
1994-06-28 25.7 28.9 19.9 16.9-------- 0.0--- 0.0 13.4-------
1994-06-27 25.3 30.6 17.1 16.1-------- 0.0--- 0.0 13.1-------
1994-06-26 20.0 28.4 10.1 6.1-------- 0.0--- 0.0 14.7-------
1994-06-25 15.8 20.9 7.4 5.1-------- 0.0--- 0.0 14.7-------
1994-06-24 15.0 19.6 8.5 5.9-------- 0.0--- 0.0 14.7-------
1994-06-23 18.3 23.0 16.5 14.8-------- 0.0--- 0.0 10.0-------
1994-06-22 18.6 26.1 8.9 6.9-------- 0.9--- 0.0 11.6-------
1994-06-21 16.4 20.2 9.3 6.4-------- 0.0--- 0.0 14.4-------
1994-06-20 18.1 21.0 14.6 12.1-------- 0.0--- 0.0 11.6-------
1994-06-19 16.9 23.1 10.8 9.8-------- 0.0--- 0.0 4.1-------
1994-06-18 11.9 18.3 4.7 2.3-------- 4.2--- 0.0 10.1-------
1994-06-17 11.3 15.1 9.1 6.3-------- 0.1--- 0.0 4.0-------
1994-06-16 14.3 19.5 8.7 5.6-------- 2.9--- 0.0 8.1-------
245.5 ms

 

Źródłem pochodzenia danych jest Instytut Meteorologii i Gospodarki Wodnej – Państwowy Instytut Badawczy. Dane Instytutu Meteorologii i Gospodarki Wodnej – Państwowego Instytutu Badawczego zostały przetworzone.

Dane źródłowe można odnaleźć na stronie https://dane.imgw.pl